sensor_id;sensor_type;location;lat;lon;timestamp;P1;durP1;ratioP1;P2;durP2;ratioP2
71108;SDS011;59614;51.012;-1.648;2022-10-31T00:00:28;24.42;;;3.88;;
71108;SDS011;59614;51.012;-1.648;2022-10-31T00:02:54;25.75;;;4.00;;
71108;SDS011;59614;51.012;-1.648;2022-10-31T00:05:19;27.58;;;4.03;;
71108;SDS011;59614;51.012;-1.648;2022-10-31T00:07:45;31.50;;;3.83;;
71108;SDS011;59614;51.012;-1.648;2022-10-31T00:10:11;22.00;;;3.63;;
71108;SDS011;59614;51.012;-1.648;2022-10-31T00:12:36;27.05;;;4.28;;
71108;SDS011;59614;51.012;-1.648;2022-10-31T00:15:02;20.98;;;3.65;;
71108;SDS011;59614;51.012;-1.648;2022-10-31T00:17:27;31.23;;;4.60;;
71108;SDS011;59614;51.012;-1.648;2022-10-31T00:19:53;34.90;;;4.97;;
71108;SDS011;59614;51.012;-1.648;2022-10-31T00:22:18;21.75;;;3.67;;
71108;SDS011;59614;51.012;-1.648;2022-10-31T00:24:44;26.55;;;4.03;;
71108;SDS011;59614;51.012;-1.648;2022-10-31T00:27:09;25.85;;;3.60;;
71108;SDS011;59614;51.012;-1.648;2022-10-31T00:29:35;33.78;;;4.18;;
71108;SDS011;59614;51.012;-1.648;2022-10-31T00:32:00;24.27;;;3.60;;
71108;SDS011;59614;51.012;-1.648;2022-10-31T00:34:26;28.50;;;4.20;;
71108;SDS011;59614;51.012;-1.648;2022-10-31T00:36:51;23.90;;;3.95;;
71108;SDS011;59614;51.012;-1.648;2022-10-31T00:39:17;29.67;;;4.50;;
71108;SDS011;59614;51.012;-1.648;2022-10-31T00:41:42;35.53;;;3.75;;
71108;SDS011;59614;51.012;-1.648;2022-10-31T00:44:08;22.60;;;3.58;;
71108;SDS011;59614;51.012;-1.648;2022-10-31T00:46:33;28.52;;;5.18;;
71108;SDS011;59614;51.012;-1.648;2022-10-31T00:48:58;29.42;;;3.55;;
71108;SDS011;59614;51.012;-1.648;2022-10-31T00:51:24;38.15;;;4.75;;
71108;SDS011;59614;51.012;-1.648;2022-10-31T00:53:49;30.42;;;3.90;;
71108;SDS011;59614;51.012;-1.648;2022-10-31T00:56:15;27.25;;;3.78;;
71108;SDS011;59614;51.012;-1.648;2022-10-31T00:58:41;23.75;;;4.25;;
71108;SDS011;59614;51.012;-1.648;2022-10-31T01:01:06;27.35;;;3.53;;
71108;SDS011;59614;51.012;-1.648;2022-10-31T01:03:32;25.60;;;4.00;;
71108;SDS011;59614;51.012;-1.648;2022-10-31T01:08:28;23.00;;;3.88;;
71108;SDS011;59614;51.012;-1.648;2022-10-31T01:10:58;23.15;;;3.22;;
71108;SDS011;59614;51.012;-1.648;2022-10-31T01:13:29;28.70;;;4.35;;
71108;SDS011;59614;51.012;-1.648;2022-10-31T01:15:55;23.70;;;3.47;;
71108;SDS011;59614;51.012;-1.648;2022-10-31T01:18:22;25.83;;;4.40;;
71108;SDS011;59614;51.012;-1.648;2022-10-31T01:20:56;24.75;;;3.75;;
71108;SDS011;59614;51.012;-1.648;2022-10-31T01:23:32;25.23;;;4.25;;
71108;SDS011;59614;51.012;-1.648;2022-10-31T01:25:59;32.88;;;4.03;;
71108;SDS011;59614;51.012;-1.648;2022-10-31T01:28:26;28.17;;;3.63;;
71108;SDS011;59614;51.012;-1.648;2022-10-31T01:30:51;23.52;;;3.72;;
71108;SDS011;59614;51.012;-1.648;2022-10-31T01:33:17;27.10;;;3.35;;
71108;SDS011;59614;51.012;-1.648;2022-10-31T01:35:42;29.42;;;3.65;;
71108;SDS011;59614;51.012;-1.648;2022-10-31T01:38:08;29.83;;;4.32;;
71108;SDS011;59614;51.012;-1.648;2022-10-31T01:40:33;21.15;;;3.33;;
71108;SDS011;59614;51.012;-1.648;2022-10-31T01:42:58;32.50;;;3.75;;
71108;SDS011;59614;51.012;-1.648;2022-10-31T01:45:24;20.05;;;3.30;;
71108;SDS011;59614;51.012;-1.648;2022-10-31T01:47:49;23.42;;;3.45;;
71108;SDS011;59614;51.012;-1.648;2022-10-31T01:50:20;18.58;;;3.30;;
71108;SDS011;59614;51.012;-1.648;2022-10-31T01:52:53;27.48;;;4.22;;
71108;SDS011;59614;51.012;-1.648;2022-10-31T01:57:53;23.15;;;3.35;;
71108;SDS011;59614;51.012;-1.648;2022-10-31T02:00:22;22.98;;;3.45;;
71108;SDS011;59614;51.012;-1.648;2022-10-31T02:02:48;17.02;;;3.00;;
71108;SDS011;59614;51.012;-1.648;2022-10-31T02:05:18;23.77;;;3.78;;
71108;SDS011;59614;51.012;-1.648;2022-10-31T02:10:37;23.52;;;3.53;;
71108;SDS011;59614;51.012;-1.648;2022-10-31T02:13:04;19.50;;;3.25;;
71108;SDS011;59614;51.012;-1.648;2022-10-31T02:15:31;18.65;;;3.35;;
71108;SDS011;59614;51.012;-1.648;2022-10-31T02:17:58;29.37;;;4.67;;
71108;SDS011;59614;51.012;-1.648;2022-10-31T02:20:25;31.67;;;4.35;;
71108;SDS011;59614;51.012;-1.648;2022-10-31T02:23:14;16.92;;;3.00;;
71108;SDS011;59614;51.012;-1.648;2022-10-31T02:34:12;33.50;;;3.80;;
71108;SDS011;59614;51.012;-1.648;2022-10-31T02:37:16;25.98;;;3.83;;
71108;SDS011;59614;51.012;-1.648;2022-10-31T02:43:02;31.05;;;4.43;;
71108;SDS011;59614;51.012;-1.648;2022-10-31T02:45:35;15.30;;;2.95;;
71108;SDS011;59614;51.012;-1.648;2022-10-31T02:48:09;26.23;;;3.97;;
71108;SDS011;59614;51.012;-1.648;2022-10-31T02:50:40;36.92;;;4.40;;
71108;SDS011;59614;51.012;-1.648;2022-10-31T02:53:10;37.15;;;4.07;;
71108;SDS011;59614;51.012;-1.648;2022-10-31T02:58:33;31.25;;;4.70;;
71108;SDS011;59614;51.012;-1.648;2022-10-31T03:01:13;23.27;;;3.85;;
71108;SDS011;59614;51.012;-1.648;2022-10-31T03:06:31;22.92;;;3.35;;
71108;SDS011;59614;51.012;-1.648;2022-10-31T03:09:06;32.00;;;4.65;;
71108;SDS011;59614;51.012;-1.648;2022-10-31T03:11:47;34.80;;;4.15;;
71108;SDS011;59614;51.012;-1.648;2022-10-31T03:14:18;28.88;;;4.28;;
71108;SDS011;59614;51.012;-1.648;2022-10-31T03:16:49;27.02;;;4.45;;
71108;SDS011;59614;51.012;-1.648;2022-10-31T03:22:15;14.75;;;3.38;;
71108;SDS011;59614;51.012;-1.648;2022-10-31T03:24:43;25.52;;;3.60;;
71108;SDS011;59614;51.012;-1.648;2022-10-31T03:27:10;21.63;;;3.58;;
71108;SDS011;59614;51.012;-1.648;2022-10-31T03:29:40;25.45;;;3.92;;
71108;SDS011;59614;51.012;-1.648;2022-10-31T03:32:21;30.42;;;4.28;;
71108;SDS011;59614;51.012;-1.648;2022-10-31T03:34:53;27.52;;;3.90;;
71108;SDS011;59614;51.012;-1.648;2022-10-31T03:37:22;32.70;;;4.03;;
71108;SDS011;59614;51.012;-1.648;2022-10-31T03:39:51;31.40;;;5.07;;
71108;SDS011;59614;51.012;-1.648;2022-10-31T03:42:24;28.40;;;4.25;;
71108;SDS011;59614;51.012;-1.648;2022-10-31T03:45:11;28.80;;;3.53;;
71108;SDS011;59614;51.012;-1.648;2022-10-31T03:47:40;29.77;;;4.60;;
71108;SDS011;59614;51.012;-1.648;2022-10-31T03:50:08;34.72;;;4.15;;
71108;SDS011;59614;51.012;-1.648;2022-10-31T03:55:26;32.05;;;4.18;;
71108;SDS011;59614;51.012;-1.648;2022-10-31T03:58:12;33.65;;;3.70;;
71108;SDS011;59614;51.012;-1.648;2022-10-31T04:00:46;22.17;;;4.07;;
71108;SDS011;59614;51.012;-1.648;2022-10-31T04:03:17;31.67;;;4.18;;
71108;SDS011;59614;51.012;-1.648;2022-10-31T04:05:48;34.97;;;3.92;;
71108;SDS011;59614;51.012;-1.648;2022-10-31T04:08:19;39.83;;;5.25;;
71108;SDS011;59614;51.012;-1.648;2022-10-31T04:10:49;27.88;;;4.50;;
71108;SDS011;59614;51.012;-1.648;2022-10-31T04:13:17;36.08;;;4.35;;
71108;SDS011;59614;51.012;-1.648;2022-10-31T04:15:47;25.45;;;3.58;;
71108;SDS011;59614;51.012;-1.648;2022-10-31T04:18:15;30.58;;;3.92;;
71108;SDS011;59614;51.012;-1.648;2022-10-31T04:20:41;21.10;;;3.72;;
71108;SDS011;59614;51.012;-1.648;2022-10-31T04:23:14;33.10;;;4.85;;
71108;SDS011;59614;51.012;-1.648;2022-10-31T04:25:49;31.13;;;3.80;;
71108;SDS011;59614;51.012;-1.648;2022-10-31T04:28:14;23.70;;;4.18;;
71108;SDS011;59614;51.012;-1.648;2022-10-31T04:30:40;26.05;;;3.60;;
71108;SDS011;59614;51.012;-1.648;2022-10-31T04:33:05;19.30;;;3.42;;
71108;SDS011;59614;51.012;-1.648;2022-10-31T04:35:31;39.38;;;3.90;;
71108;SDS011;59614;51.012;-1.648;2022-10-31T04:37:56;37.05;;;4.00;;
71108;SDS011;59614;51.012;-1.648;2022-10-31T04:40:22;24.83;;;3.97;;
71108;SDS011;59614;51.012;-1.648;2022-10-31T04:42:47;34.83;;;4.18;;
71108;SDS011;59614;51.012;-1.648;2022-10-31T04:45:12;26.35;;;4.57;;
71108;SDS011;59614;51.012;-1.648;2022-10-31T04:47:38;26.88;;;4.28;;
71108;SDS011;59614;51.012;-1.648;2022-10-31T04:50:04;41.75;;;4.93;;
71108;SDS011;59614;51.012;-1.648;2022-10-31T04:52:29;33.13;;;5.18;;
71108;SDS011;59614;51.012;-1.648;2022-10-31T04:54:55;29.35;;;4.93;;
71108;SDS011;59614;51.012;-1.648;2022-10-31T04:57:20;27.75;;;3.70;;
71108;SDS011;59614;51.012;-1.648;2022-10-31T04:59:46;29.05;;;4.03;;
71108;SDS011;59614;51.012;-1.648;2022-10-31T05:02:11;32.90;;;4.00;;
71108;SDS011;59614;51.012;-1.648;2022-10-31T05:04:37;38.55;;;4.55;;
71108;SDS011;59614;51.012;-1.648;2022-10-31T05:07:02;42.92;;;5.00;;
71108;SDS011;59614;51.012;-1.648;2022-10-31T05:09:28;42.05;;;4.78;;
71108;SDS011;59614;51.012;-1.648;2022-10-31T05:11:53;45.55;;;4.65;;
71108;SDS011;59614;51.012;-1.648;2022-10-31T05:14:18;35.28;;;4.40;;
71108;SDS011;59614;51.012;-1.648;2022-10-31T05:16:44;49.03;;;4.78;;
71108;SDS011;59614;51.012;-1.648;2022-10-31T05:19:09;43.90;;;4.25;;
71108;SDS011;59614;51.012;-1.648;2022-10-31T05:21:35;38.80;;;5.38;;
71108;SDS011;59614;51.012;-1.648;2022-10-31T05:24:00;40.03;;;4.25;;
71108;SDS011;59614;51.012;-1.648;2022-10-31T05:26:26;37.40;;;4.72;;
71108;SDS011;59614;51.012;-1.648;2022-10-31T05:28:51;36.65;;;5.20;;
71108;SDS011;59614;51.012;-1.648;2022-10-31T05:31:17;39.58;;;4.93;;
71108;SDS011;59614;51.012;-1.648;2022-10-31T05:33:42;37.35;;;4.68;;
71108;SDS011;59614;51.012;-1.648;2022-10-31T05:36:08;31.00;;;4.47;;
71108;SDS011;59614;51.012;-1.648;2022-10-31T05:38:33;32.47;;;4.35;;
71108;SDS011;59614;51.012;-1.648;2022-10-31T05:40:59;42.60;;;5.07;;
71108;SDS011;59614;51.012;-1.648;2022-10-31T05:43:27;46.92;;;4.93;;
71108;SDS011;59614;51.012;-1.648;2022-10-31T05:45:54;31.85;;;4.38;;
71108;SDS011;59614;51.012;-1.648;2022-10-31T05:48:20;39.28;;;4.80;;
71108;SDS011;59614;51.012;-1.648;2022-10-31T05:50:47;45.70;;;4.78;;
71108;SDS011;59614;51.012;-1.648;2022-10-31T05:53:13;31.20;;;4.53;;
71108;SDS011;59614;51.012;-1.648;2022-10-31T05:55:39;42.47;;;3.95;;
71108;SDS011;59614;51.012;-1.648;2022-10-31T05:58:05;37.15;;;4.25;;
71108;SDS011;59614;51.012;-1.648;2022-10-31T06:00:31;34.63;;;4.90;;
71108;SDS011;59614;51.012;-1.648;2022-10-31T06:03:00;47.80;;;4.68;;
71108;SDS011;59614;51.012;-1.648;2022-10-31T06:05:27;37.50;;;4.90;;
71108;SDS011;59614;51.012;-1.648;2022-10-31T06:07:53;25.95;;;4.40;;
71108;SDS011;59614;51.012;-1.648;2022-10-31T06:10:19;38.60;;;5.03;;
71108;SDS011;59614;51.012;-1.648;2022-10-31T06:12:46;41.25;;;5.00;;
71108;SDS011;59614;51.012;-1.648;2022-10-31T06:15:12;23.25;;;3.50;;
71108;SDS011;59614;51.012;-1.648;2022-10-31T06:17:38;41.55;;;5.57;;
71108;SDS011;59614;51.012;-1.648;2022-10-31T06:20:03;40.92;;;5.38;;
71108;SDS011;59614;51.012;-1.648;2022-10-31T06:22:30;31.67;;;4.25;;
71108;SDS011;59614;51.012;-1.648;2022-10-31T06:24:55;43.92;;;4.43;;
71108;SDS011;59614;51.012;-1.648;2022-10-31T06:27:21;35.30;;;5.18;;
71108;SDS011;59614;51.012;-1.648;2022-10-31T06:29:47;32.85;;;4.60;;
71108;SDS011;59614;51.012;-1.648;2022-10-31T06:32:14;38.90;;;4.25;;
71108;SDS011;59614;51.012;-1.648;2022-10-31T06:34:40;34.13;;;4.20;;
71108;SDS011;59614;51.012;-1.648;2022-10-31T06:37:07;26.83;;;3.92;;
71108;SDS011;59614;51.012;-1.648;2022-10-31T06:39:36;32.30;;;5.28;;
71108;SDS011;59614;51.012;-1.648;2022-10-31T06:42:02;42.33;;;4.90;;
71108;SDS011;59614;51.012;-1.648;2022-10-31T06:44:28;40.97;;;4.53;;
71108;SDS011;59614;51.012;-1.648;2022-10-31T06:46:54;36.85;;;4.53;;
71108;SDS011;59614;51.012;-1.648;2022-10-31T06:49:20;38.78;;;5.07;;
71108;SDS011;59614;51.012;-1.648;2022-10-31T06:51:49;51.55;;;5.93;;
71108;SDS011;59614;51.012;-1.648;2022-10-31T06:54:15;45.40;;;5.28;;
71108;SDS011;59614;51.012;-1.648;2022-10-31T06:56:40;44.92;;;5.88;;
71108;SDS011;59614;51.012;-1.648;2022-10-31T06:59:08;39.45;;;4.65;;
71108;SDS011;59614;51.012;-1.648;2022-10-31T07:01:34;32.45;;;5.20;;
71108;SDS011;59614;51.012;-1.648;2022-10-31T07:04:00;46.30;;;5.25;;
71108;SDS011;59614;51.012;-1.648;2022-10-31T07:06:25;40.03;;;5.05;;
71108;SDS011;59614;51.012;-1.648;2022-10-31T07:08:51;36.45;;;5.50;;
71108;SDS011;59614;51.012;-1.648;2022-10-31T07:11:16;47.63;;;5.55;;
71108;SDS011;59614;51.012;-1.648;2022-10-31T07:13:42;48.30;;;5.43;;
71108;SDS011;59614;51.012;-1.648;2022-10-31T07:16:08;28.67;;;4.68;;
71108;SDS011;59614;51.012;-1.648;2022-10-31T07:18:36;42.20;;;5.28;;
71108;SDS011;59614;51.012;-1.648;2022-10-31T07:21:02;39.58;;;4.90;;
71108;SDS011;59614;51.012;-1.648;2022-10-31T07:23:28;50.47;;;5.03;;
71108;SDS011;59614;51.012;-1.648;2022-10-31T07:25:56;43.75;;;5.35;;
71108;SDS011;59614;51.012;-1.648;2022-10-31T07:28:23;27.13;;;4.03;;
71108;SDS011;59614;51.012;-1.648;2022-10-31T07:30:50;39.92;;;4.63;;
71108;SDS011;59614;51.012;-1.648;2022-10-31T07:33:16;41.15;;;4.95;;
71108;SDS011;59614;51.012;-1.648;2022-10-31T07:35:42;38.42;;;4.90;;
71108;SDS011;59614;51.012;-1.648;2022-10-31T07:38:11;37.38;;;4.85;;
71108;SDS011;59614;51.012;-1.648;2022-10-31T07:40:38;38.88;;;4.78;;
71108;SDS011;59614;51.012;-1.648;2022-10-31T07:43:04;41.00;;;5.20;;
71108;SDS011;59614;51.012;-1.648;2022-10-31T07:45:29;46.17;;;4.68;;
71108;SDS011;59614;51.012;-1.648;2022-10-31T07:47:55;37.15;;;4.63;;
71108;SDS011;59614;51.012;-1.648;2022-10-31T07:50:22;37.38;;;5.35;;
71108;SDS011;59614;51.012;-1.648;2022-10-31T07:52:57;35.42;;;5.28;;
71108;SDS011;59614;51.012;-1.648;2022-10-31T07:55:26;41.33;;;5.32;;
71108;SDS011;59614;51.012;-1.648;2022-10-31T07:57:56;43.22;;;4.75;;
71108;SDS011;59614;51.012;-1.648;2022-10-31T08:03:07;44.05;;;4.65;;
71108;SDS011;59614;51.012;-1.648;2022-10-31T08:05:34;43.00;;;4.88;;
71108;SDS011;59614;51.012;-1.648;2022-10-31T08:08:01;29.30;;;4.75;;
71108;SDS011;59614;51.012;-1.648;2022-10-31T08:10:27;44.13;;;4.38;;
71108;SDS011;59614;51.012;-1.648;2022-10-31T08:12:57;34.28;;;4.35;;
71108;SDS011;59614;51.012;-1.648;2022-10-31T08:15:24;32.83;;;4.38;;
71108;SDS011;59614;51.012;-1.648;2022-10-31T08:17:50;39.53;;;4.85;;
71108;SDS011;59614;51.012;-1.648;2022-10-31T08:20:16;27.00;;;4.28;;
71108;SDS011;59614;51.012;-1.648;2022-10-31T08:22:41;47.33;;;4.75;;
71108;SDS011;59614;51.012;-1.648;2022-10-31T08:25:07;40.72;;;5.05;;
71108;SDS011;59614;51.012;-1.648;2022-10-31T08:27:33;31.33;;;4.35;;
71108;SDS011;59614;51.012;-1.648;2022-10-31T08:29:59;30.42;;;5.18;;
71108;SDS011;59614;51.012;-1.648;2022-10-31T08:32:24;38.97;;;4.78;;
71108;SDS011;59614;51.012;-1.648;2022-10-31T08:34:50;32.08;;;4.90;;
71108;SDS011;59614;51.012;-1.648;2022-10-31T08:37:15;24.25;;;4.18;;
71108;SDS011;59614;51.012;-1.648;2022-10-31T08:39:45;29.55;;;4.50;;
71108;SDS011;59614;51.012;-1.648;2022-10-31T08:42:12;26.23;;;4.53;;
71108;SDS011;59614;51.012;-1.648;2022-10-31T08:44:37;37.88;;;4.30;;
71108;SDS011;59614;51.012;-1.648;2022-10-31T08:47:03;28.42;;;3.92;;
71108;SDS011;59614;51.012;-1.648;2022-10-31T08:49:28;26.35;;;3.92;;
71108;SDS011;59614;51.012;-1.648;2022-10-31T08:51:54;29.67;;;4.20;;
71108;SDS011;59614;51.012;-1.648;2022-10-31T08:54:19;26.38;;;3.80;;
71108;SDS011;59614;51.012;-1.648;2022-10-31T08:56:45;20.20;;;3.75;;
71108;SDS011;59614;51.012;-1.648;2022-10-31T08:59:11;22.98;;;4.20;;
71108;SDS011;59614;51.012;-1.648;2022-10-31T09:01:36;25.58;;;3.75;;
71108;SDS011;59614;51.012;-1.648;2022-10-31T09:04:02;18.25;;;3.30;;
71108;SDS011;59614;51.012;-1.648;2022-10-31T09:06:27;19.05;;;3.70;;
71108;SDS011;59614;51.012;-1.648;2022-10-31T09:08:53;19.90;;;3.63;;
71108;SDS011;59614;51.012;-1.648;2022-10-31T09:11:18;28.77;;;3.92;;
71108;SDS011;59614;51.012;-1.648;2022-10-31T09:13:44;30.88;;;3.67;;
71108;SDS011;59614;51.012;-1.648;2022-10-31T09:16:09;28.38;;;4.22;;
71108;SDS011;59614;51.012;-1.648;2022-10-31T09:18:35;24.50;;;3.45;;
71108;SDS011;59614;51.012;-1.648;2022-10-31T09:21:00;20.65;;;4.10;;
71108;SDS011;59614;51.012;-1.648;2022-10-31T09:23:26;23.02;;;3.70;;
71108;SDS011;59614;51.012;-1.648;2022-10-31T09:25:52;23.52;;;3.45;;
71108;SDS011;59614;51.012;-1.648;2022-10-31T09:28:21;20.05;;;3.60;;
71108;SDS011;59614;51.012;-1.648;2022-10-31T09:30:48;21.55;;;3.60;;
71108;SDS011;59614;51.012;-1.648;2022-10-31T09:33:17;19.65;;;4.15;;
71108;SDS011;59614;51.012;-1.648;2022-10-31T09:35:43;26.00;;;3.67;;
71108;SDS011;59614;51.012;-1.648;2022-10-31T09:38:09;19.40;;;3.15;;
71108;SDS011;59614;51.012;-1.648;2022-10-31T09:40:40;21.17;;;3.35;;
71108;SDS011;59614;51.012;-1.648;2022-10-31T09:48:51;20.15;;;3.45;;
71108;SDS011;59614;51.012;-1.648;2022-10-31T09:56:47;14.93;;;3.67;;
71108;SDS011;59614;51.012;-1.648;2022-10-31T09:59:35;19.20;;;3.45;;
71108;SDS011;59614;51.012;-1.648;2022-10-31T10:02:01;16.73;;;2.75;;
71108;SDS011;59614;51.012;-1.648;2022-10-31T10:04:33;17.80;;;2.90;;
71108;SDS011;59614;51.012;-1.648;2022-10-31T10:09:57;17.25;;;3.22;;
71108;SDS011;59614;51.012;-1.648;2022-10-31T10:26:52;16.67;;;3.00;;
71108;SDS011;59614;51.012;-1.648;2022-10-31T10:29:42;24.75;;;3.08;;
71108;SDS011;59614;51.012;-1.648;2022-10-31T10:32:20;19.20;;;2.83;;
71108;SDS011;59614;51.012;-1.648;2022-10-31T10:34:50;12.45;;;2.80;;
71108;SDS011;59614;51.012;-1.648;2022-10-31T10:37:30;15.00;;;2.58;;
71108;SDS011;59614;51.012;-1.648;2022-10-31T10:40:08;13.77;;;2.85;;
71108;SDS011;59614;51.012;-1.648;2022-10-31T10:46:00;19.77;;;3.33;;
71108;SDS011;59614;51.012;-1.648;2022-10-31T10:51:45;13.40;;;2.60;;
71108;SDS011;59614;51.012;-1.648;2022-10-31T10:57:46;14.02;;;3.13;;
71108;SDS011;59614;51.012;-1.648;2022-10-31T11:00:22;13.25;;;2.85;;
71108;SDS011;59614;51.012;-1.648;2022-10-31T11:02:54;16.75;;;2.70;;
71108;SDS011;59614;51.012;-1.648;2022-10-31T11:07:55;15.25;;;2.80;;
71108;SDS011;59614;51.012;-1.648;2022-10-31T11:10:20;13.25;;;2.70;;
71108;SDS011;59614;51.012;-1.648;2022-10-31T11:13:17;12.35;;;2.90;;
71108;SDS011;59614;51.012;-1.648;2022-10-31T11:15:39;10.20;;;2.92;;
71108;SDS011;59614;51.012;-1.648;2022-10-31T11:18:22;12.52;;;3.00;;
71108;SDS011;59614;51.012;-1.648;2022-10-31T11:20:55;11.70;;;2.67;;
71108;SDS011;59614;51.012;-1.648;2022-10-31T11:23:24;8.30;;;2.33;;
71108;SDS011;59614;51.012;-1.648;2022-10-31T11:28:30;10.55;;;2.83;;
71108;SDS011;59614;51.012;-1.648;2022-10-31T11:30:59;20.10;;;3.15;;
71108;SDS011;59614;51.012;-1.648;2022-10-31T11:33:47;9.10;;;2.20;;
71108;SDS011;59614;51.012;-1.648;2022-10-31T11:36:33;12.02;;;2.70;;
71108;SDS011;59614;51.012;-1.648;2022-10-31T11:39:03;11.48;;;3.03;;
71108;SDS011;59614;51.012;-1.648;2022-10-31T11:49:17;11.45;;;2.88;;
71108;SDS011;59614;51.012;-1.648;2022-10-31T11:51:49;10.30;;;2.17;;
71108;SDS011;59614;51.012;-1.648;2022-10-31T11:54:20;11.00;;;2.40;;
71108;SDS011;59614;51.012;-1.648;2022-10-31T11:56:59;8.73;;;2.30;;
71108;SDS011;59614;51.012;-1.648;2022-10-31T11:59:28;15.85;;;3.33;;
71108;SDS011;59614;51.012;-1.648;2022-10-31T12:01:59;14.27;;;2.90;;
71108;SDS011;59614;51.012;-1.648;2022-10-31T12:06:55;17.40;;;2.90;;
71108;SDS011;59614;51.012;-1.648;2022-10-31T12:09:21;13.35;;;2.67;;
71108;SDS011;59614;51.012;-1.648;2022-10-31T12:14:36;12.27;;;2.80;;
71108;SDS011;59614;51.012;-1.648;2022-10-31T12:17:16;11.77;;;2.50;;
71108;SDS011;59614;51.012;-1.648;2022-10-31T12:25:21;13.88;;;2.65;;
71108;SDS011;59614;51.012;-1.648;2022-10-31T12:33:15;11.40;;;2.30;;
71108;SDS011;59614;51.012;-1.648;2022-10-31T12:46:24;16.75;;;3.03;;
71108;SDS011;59614;51.012;-1.648;2022-10-31T12:49:14;14.40;;;3.22;;
71108;SDS011;59614;51.012;-1.648;2022-10-31T12:51:48;10.68;;;2.58;;
71108;SDS011;59614;51.012;-1.648;2022-10-31T12:59:47;12.00;;;2.85;;
71108;SDS011;59614;51.012;-1.648;2022-10-31T13:02:18;12.35;;;2.80;;
71108;SDS011;59614;51.012;-1.648;2022-10-31T13:04:56;14.32;;;2.83;;
71108;SDS011;59614;51.012;-1.648;2022-10-31T13:07:29;13.23;;;3.10;;
71108;SDS011;59614;51.012;-1.648;2022-10-31T13:12:34;15.45;;;2.80;;
71108;SDS011;59614;51.012;-1.648;2022-10-31T13:15:03;20.48;;;3.08;;
71108;SDS011;59614;51.012;-1.648;2022-10-31T13:17:45;10.95;;;2.60;;
71108;SDS011;59614;51.012;-1.648;2022-10-31T13:22:46;11.35;;;2.50;;
71108;SDS011;59614;51.012;-1.648;2022-10-31T13:25:26;12.35;;;2.88;;
71108;SDS011;59614;51.012;-1.648;2022-10-31T13:27:58;9.35;;;2.63;;
71108;SDS011;59614;51.012;-1.648;2022-10-31T13:30:38;7.43;;;2.10;;
71108;SDS011;59614;51.012;-1.648;2022-10-31T13:35:48;13.00;;;1.98;;
71108;SDS011;59614;51.012;-1.648;2022-10-31T13:41:22;11.20;;;2.55;;
71108;SDS011;59614;51.012;-1.648;2022-10-31T13:44:22;10.83;;;2.47;;
71108;SDS011;59614;51.012;-1.648;2022-10-31T13:46:50;6.65;;;2.13;;
71108;SDS011;59614;51.012;-1.648;2022-10-31T13:51:51;15.40;;;2.55;;
71108;SDS011;59614;51.012;-1.648;2022-10-31T13:54:23;13.68;;;2.35;;
71108;SDS011;59614;51.012;-1.648;2022-10-31T13:56:56;9.80;;;2.22;;
71108;SDS011;59614;51.012;-1.648;2022-10-31T13:59:22;10.57;;;2.42;;
71108;SDS011;59614;51.012;-1.648;2022-10-31T14:01:51;7.95;;;2.58;;
71108;SDS011;59614;51.012;-1.648;2022-10-31T14:06:53;10.80;;;2.93;;
71108;SDS011;59614;51.012;-1.648;2022-10-31T14:12:22;13.98;;;2.97;;
71108;SDS011;59614;51.012;-1.648;2022-10-31T14:17:54;16.38;;;3.10;;
71108;SDS011;59614;51.012;-1.648;2022-10-31T14:20:33;7.57;;;3.03;;
71108;SDS011;59614;51.012;-1.648;2022-10-31T14:26:20;16.73;;;3.13;;
71108;SDS011;59614;51.012;-1.648;2022-10-31T14:50:58;16.88;;;3.88;;
71108;SDS011;59614;51.012;-1.648;2022-10-31T14:53:27;17.40;;;4.40;;
71108;SDS011;59614;51.012;-1.648;2022-10-31T14:55:56;24.67;;;4.10;;
71108;SDS011;59614;51.012;-1.648;2022-10-31T14:58:24;18.50;;;4.63;;
71108;SDS011;59614;51.012;-1.648;2022-10-31T15:00:57;17.88;;;4.68;;
71108;SDS011;59614;51.012;-1.648;2022-10-31T15:03:42;14.88;;;4.10;;
71108;SDS011;59614;51.012;-1.648;2022-10-31T15:06:15;16.10;;;3.95;;
71108;SDS011;59614;51.012;-1.648;2022-10-31T15:08:46;22.73;;;4.15;;
71108;SDS011;59614;51.012;-1.648;2022-10-31T15:13:41;26.35;;;5.63;;
71108;SDS011;59614;51.012;-1.648;2022-10-31T15:16:17;17.42;;;4.68;;
71108;SDS011;59614;51.012;-1.648;2022-10-31T15:18:47;17.42;;;4.40;;
71108;SDS011;59614;51.012;-1.648;2022-10-31T15:21:32;15.60;;;4.85;;
71108;SDS011;59614;51.012;-1.648;2022-10-31T15:23:59;16.48;;;4.35;;
71108;SDS011;59614;51.012;-1.648;2022-10-31T15:26:31;21.75;;;4.45;;
71108;SDS011;59614;51.012;-1.648;2022-10-31T15:29:13;15.98;;;3.65;;
71108;SDS011;59614;51.012;-1.648;2022-10-31T15:31:58;15.48;;;4.35;;
71108;SDS011;59614;51.012;-1.648;2022-10-31T15:34:27;23.88;;;3.88;;
71108;SDS011;59614;51.012;-1.648;2022-10-31T15:36:55;17.25;;;4.30;;
71108;SDS011;59614;51.012;-1.648;2022-10-31T15:39:21;18.45;;;4.00;;
71108;SDS011;59614;51.012;-1.648;2022-10-31T15:44:13;13.23;;;3.78;;
71108;SDS011;59614;51.012;-1.648;2022-10-31T15:49:27;19.20;;;5.10;;
71108;SDS011;59614;51.012;-1.648;2022-10-31T15:52:02;16.77;;;3.60;;
71108;SDS011;59614;51.012;-1.648;2022-10-31T15:54:32;18.60;;;4.47;;
71108;SDS011;59614;51.012;-1.648;2022-10-31T15:56:58;12.95;;;3.83;;
71108;SDS011;59614;51.012;-1.648;2022-10-31T15:59:25;16.38;;;4.15;;
71108;SDS011;59614;51.012;-1.648;2022-10-31T16:02:03;25.10;;;5.20;;
71108;SDS011;59614;51.012;-1.648;2022-10-31T16:04:34;12.80;;;4.03;;
71108;SDS011;59614;51.012;-1.648;2022-10-31T16:07:02;14.10;;;4.53;;
71108;SDS011;59614;51.012;-1.648;2022-10-31T16:09:37;23.42;;;5.10;;
71108;SDS011;59614;51.012;-1.648;2022-10-31T16:12:14;18.65;;;5.20;;
71108;SDS011;59614;51.012;-1.648;2022-10-31T16:14:41;18.80;;;5.57;;
71108;SDS011;59614;51.012;-1.648;2022-10-31T16:17:10;18.80;;;6.43;;
71108;SDS011;59614;51.012;-1.648;2022-10-31T16:19:44;28.23;;;6.78;;
71108;SDS011;59614;51.012;-1.648;2022-10-31T16:22:22;20.90;;;5.57;;
71108;SDS011;59614;51.012;-1.648;2022-10-31T16:25:00;21.13;;;6.05;;
71108;SDS011;59614;51.012;-1.648;2022-10-31T16:27:38;26.23;;;6.50;;
71108;SDS011;59614;51.012;-1.648;2022-10-31T16:32:56;29.45;;;6.13;;
71108;SDS011;59614;51.012;-1.648;2022-10-31T16:35:34;26.85;;;7.25;;
71108;SDS011;59614;51.012;-1.648;2022-10-31T16:38:01;13.10;;;5.90;;
71108;SDS011;59614;51.012;-1.648;2022-10-31T16:40:27;27.95;;;6.65;;
71108;SDS011;59614;51.012;-1.648;2022-10-31T16:42:56;23.52;;;6.43;;
71108;SDS011;59614;51.012;-1.648;2022-10-31T16:45:24;19.98;;;5.75;;
71108;SDS011;59614;51.012;-1.648;2022-10-31T16:47:52;22.77;;;5.70;;
71108;SDS011;59614;51.012;-1.648;2022-10-31T16:50:21;18.13;;;6.55;;
71108;SDS011;59614;51.012;-1.648;2022-10-31T16:52:48;22.83;;;6.60;;
71108;SDS011;59614;51.012;-1.648;2022-10-31T16:55:14;21.50;;;6.75;;
71108;SDS011;59614;51.012;-1.648;2022-10-31T16:57:42;20.83;;;6.55;;
71108;SDS011;59614;51.012;-1.648;2022-10-31T17:00:15;19.90;;;6.90;;
71108;SDS011;59614;51.012;-1.648;2022-10-31T17:02:42;20.63;;;7.28;;
71108;SDS011;59614;51.012;-1.648;2022-10-31T17:05:12;24.20;;;7.43;;
71108;SDS011;59614;51.012;-1.648;2022-10-31T17:07:40;26.00;;;7.13;;
71108;SDS011;59614;51.012;-1.648;2022-10-31T17:10:06;29.38;;;8.57;;
71108;SDS011;59614;51.012;-1.648;2022-10-31T17:12:33;27.83;;;9.40;;
71108;SDS011;59614;51.012;-1.648;2022-10-31T17:14:58;29.10;;;9.13;;
71108;SDS011;59614;51.012;-1.648;2022-10-31T17:17:25;26.42;;;9.30;;
71108;SDS011;59614;51.012;-1.648;2022-10-31T17:19:50;31.15;;;10.40;;
71108;SDS011;59614;51.012;-1.648;2022-10-31T17:22:16;33.00;;;10.30;;
71108;SDS011;59614;51.012;-1.648;2022-10-31T17:24:41;31.65;;;11.23;;
71108;SDS011;59614;51.012;-1.648;2022-10-31T17:27:07;26.33;;;12.73;;